Time;durP1;ratioP1;P1;durP2;ratioP2;P2;SDS_P1;SDS_P2;PMS_P1;PMS_P2;Temp;Humidity;BMP_temperature;BMP_pressure;BME280_temperature;BME280_humidity;BME280_pressure;Samples;Min_cycle;Max_cycle;Signal;HPM_P1;HPM_P2
2023/12/03 00:01:35;;;;;;;1.30;1.23;;;0.90;99.90;;;;;;5018474;28;20149;-74
2023/12/03 00:04:02;;;;;;;1.67;1.58;;;0.90;99.90;;;;;;5024936;28;20037;-74
2023/12/03 00:06:28;;;;;;;0.73;0.73;;;0.90;99.90;;;;;;5014151;28;20053;-74
2023/12/03 00:08:54;;;;;;;2.80;2.38;;;0.80;99.90;;;;;;5015042;28;20483;-74
2023/12/03 00:11:19;;;;;;;2.97;1.10;;;0.80;99.90;;;;;;5020922;28;20125;-74
2023/12/03 00:13:46;;;;;;;8.63;1.60;;;0.70;99.90;;;;;;5011291;28;20084;-74
2023/12/03 00:16:11;;;;;;;2.80;1.23;;;0.80;99.90;;;;;;5015394;28;20141;-74
2023/12/03 00:18:39;;;;;;;0.95;0.95;;;0.80;99.90;;;;;;5013669;28;20637;-74
2023/12/03 00:21:05;;;;;;;2.53;2.22;;;0.80;99.90;;;;;;5020823;28;20140;-74
2023/12/03 00:23:30;;;;;;;1.38;1.08;;;0.70;99.90;;;;;;5011417;28;20352;-74
2023/12/03 00:25:56;;;;;;;2.63;2.42;;;0.70;99.90;;;;;;5013342;28;20057;-74
2023/12/03 00:28:22;;;;;;;1.20;1.10;;;0.70;99.90;;;;;;5017451;28;20880;-74
2023/12/03 00:30:48;;;;;;;0.70;0.70;;;0.80;99.90;;;;;;5016125;28;20072;-74
2023/12/03 00:33:14;;;;;;;1.27;1.25;;;0.70;99.90;;;;;;5018467;28;20088;-74
2023/12/03 00:35:39;;;;;;;1.00;1.00;;;0.70;99.90;;;;;;5019534;28;20419;-74
2023/12/03 00:38:05;;;;;;;1.65;1.45;;;0.70;99.90;;;;;;5013246;28;20041;-74
2023/12/03 00:40:31;;;;;;;0.95;0.95;;;0.70;99.90;;;;;;5016561;28;20565;-74
2023/12/03 00:42:56;;;;;;;2.25;1.38;;;0.70;99.90;;;;;;5016366;28;20056;-74
2023/12/03 00:45:22;;;;;;;1.85;1.23;;;0.70;99.90;;;;;;5013961;28;20059;-74
2023/12/03 00:47:48;;;;;;;3.08;1.55;;;0.70;99.90;;;;;;5020388;28;20045;-74
2023/12/03 00:50:13;;;;;;;2.10;1.25;;;0.70;99.90;;;;;;5016916;28;20077;-74
2023/12/03 00:52:39;;;;;;;1.13;1.13;;;0.70;99.90;;;;;;5013024;28;20379;-74
2023/12/03 00:55:05;;;;;;;1.48;1.23;;;0.70;99.90;;;;;;5019761;28;20742;-74
2023/12/03 00:57:30;;;;;;;1.45;1.35;;;0.70;99.90;;;;;;5020094;28;20065;-74
2023/12/03 00:59:56;;;;;;;1.70;0.85;;;0.60;99.90;;;;;;5014483;28;20100;-74
2023/12/03 01:02:22;;;;;;;0.77;0.77;;;0.60;99.90;;;;;;5001158;28;20041;-74
2023/12/03 01:04:47;;;;;;;1.25;1.25;;;0.70;99.90;;;;;;5017759;28;20034;-74
2023/12/03 01:07:13;;;;;;;1.63;1.23;;;0.70;99.90;;;;;;5007537;28;20133;-74
2023/12/03 01:09:40;;;;;;;0.50;0.50;;;0.70;99.90;;;;;;5024761;28;20509;-74
2023/12/03 01:12:06;;;;;;;1.95;1.83;;;0.70;99.90;;;;;;5018538;28;20041;-74
2023/12/03 01:14:32;;;;;;;1.95;1.55;;;0.70;99.90;;;;;;5021403;28;20056;-74
2023/12/03 01:16:57;;;;;;;1.25;1.10;;;0.70;99.90;;;;;;5012812;28;20042;-74
2023/12/03 01:19:23;;;;;;;0.68;0.68;;;0.70;99.90;;;;;;5015675;28;20076;-74
2023/12/03 01:21:49;;;;;;;0.85;0.85;;;0.80;99.90;;;;;;5017635;28;20045;-74
2023/12/03 01:24:15;;;;;;;0.75;0.75;;;0.80;99.90;;;;;;5015607;28;20046;-74
2023/12/03 01:26:40;;;;;;;1.38;1.27;;;0.80;99.90;;;;;;5015246;28;20407;-74
2023/12/03 01:29:06;;;;;;;0.98;0.77;;;0.80;99.90;;;;;;5016608;28;20055;-74
2023/12/03 01:31:31;;;;;;;0.70;0.70;;;0.80;99.90;;;;;;5019735;28;20045;-74
2023/12/03 01:33:57;;;;;;;0.57;0.57;;;0.80;99.90;;;;;;5024014;28;20053;-74
2023/12/03 01:36:23;;;;;;;1.30;1.02;;;0.80;99.90;;;;;;5003963;28;20041;-74
2023/12/03 01:38:48;;;;;;;1.23;1.13;;;0.80;99.90;;;;;;5021972;28;20037;-74
2023/12/03 01:41:14;;;;;;;0.70;0.70;;;0.80;99.90;;;;;;5019563;28;20072;-74
2023/12/03 01:43:50;;;;;;;1.27;1.27;;;0.80;99.90;;;;;;5023706;28;20073;-74
2023/12/03 01:46:17;;;;;;;0.95;0.75;;;0.80;99.90;;;;;;5014236;28;20602;-74
2023/12/03 01:48:47;;;;;;;0.57;0.57;;;0.80;99.90;;;;;;5012809;28;20037;-74
2023/12/03 01:51:13;;;;;;;3.83;2.05;;;0.80;99.90;;;;;;5022103;28;20124;-74
2023/12/03 01:53:40;;;;;;;0.90;0.90;;;0.90;99.90;;;;;;5016326;28;20057;-74
2023/12/03 01:56:06;;;;;;;2.15;1.42;;;0.80;99.90;;;;;;5017098;28;20636;-74
2023/12/03 01:58:32;;;;;;;2.15;1.40;;;0.90;99.90;;;;;;5014280;28;20053;-74
2023/12/03 02:00:58;;;;;;;1.63;1.42;;;0.90;99.90;;;;;;5024168;28;20072;-74
2023/12/03 02:03:24;;;;;;;1.45;1.35;;;0.90;99.90;;;;;;5011800;28;20073;-74
2023/12/03 02:06:16;;;;;;;0.85;0.85;;;0.90;99.90;;;;;;5019276;28;20076;-74
2023/12/03 02:08:42;;;;;;;0.82;0.82;;;0.90;99.90;;;;;;5014656;28;20135;-74
2023/12/03 02:11:08;;;;;;;0.75;0.75;;;0.90;99.90;;;;;;5021437;28;20278;-74
2023/12/03 02:13:36;;;;;;;1.15;0.85;;;0.90;99.90;;;;;;5023837;28;20080;-74
2023/12/03 02:16:02;;;;;;;0.85;0.85;;;0.90;99.90;;;;;;5013996;28;20175;-74
2023/12/03 02:18:29;;;;;;;1.00;0.93;;;0.90;99.90;;;;;;5015621;28;20132;-74
2023/12/03 02:20:55;;;;;;;3.38;2.75;;;0.90;99.90;;;;;;5017240;28;20049;-74
2023/12/03 02:23:21;;;;;;;1.10;1.02;;;0.90;99.90;;;;;;5024103;28;20053;-74
2023/12/03 02:25:50;;;;;;;1.27;1.23;;;0.90;99.90;;;;;;5019852;28;20049;-74
2023/12/03 02:28:17;;;;;;;3.60;1.90;;;0.90;99.90;;;;;;5025426;28;20057;-74
2023/12/03 02:30:43;;;;;;;2.35;1.63;;;0.90;99.90;;;;;;5027540;28;20069;-74
2023/12/03 02:33:09;;;;;;;1.15;1.15;;;0.90;99.90;;;;;;5023062;28;20073;-74
2023/12/03 02:35:34;;;;;;;2.05;1.13;;;0.90;99.90;;;;;;5024533;28;20067;-74
2023/12/03 02:38:00;;;;;;;0.90;0.90;;;0.80;99.90;;;;;;5022914;28;20054;-74
2023/12/03 02:40:25;;;;;;;1.20;0.95;;;0.90;99.90;;;;;;5020664;28;20050;-74
2023/12/03 02:42:51;;;;;;;1.02;1.02;;;0.90;99.90;;;;;;5021174;28;20402;-74
2023/12/03 02:45:17;;;;;;;1.15;1.13;;;0.90;99.90;;;;;;5025372;28;20580;-74
2023/12/03 02:47:43;;;;;;;1.50;1.40;;;0.90;99.90;;;;;;5020469;28;20414;-74
2023/12/03 02:50:09;;;;;;;0.88;0.88;;;0.90;99.90;;;;;;5019859;28;20045;-74
2023/12/03 02:52:34;;;;;;;1.00;1.00;;;0.90;99.90;;;;;;5019940;28;20042;-74
2023/12/03 02:55:00;;;;;;;1.40;1.30;;;0.90;99.90;;;;;;5020785;28;20049;-74
2023/12/03 02:57:26;;;;;;;9.63;2.40;;;0.90;99.90;;;;;;5014504;28;20121;-74
2023/12/03 02:59:51;;;;;;;1.73;1.63;;;0.90;99.90;;;;;;5024706;28;20128;-74
2023/12/03 03:02:17;;;;;;;1.67;1.58;;;0.90;99.90;;;;;;5023834;28;20050;-74
2023/12/03 03:04:43;;;;;;;1.63;1.48;;;0.90;99.90;;;;;;5023971;28;20042;-74
2023/12/03 03:07:08;;;;;;;2.00;1.08;;;0.90;99.90;;;;;;5017724;28;20609;-74
2023/12/03 03:09:34;;;;;;;1.88;1.40;;;0.90;99.90;;;;;;5019747;28;20049;-74
2023/12/03 03:11:59;;;;;;;0.80;0.80;;;0.90;99.90;;;;;;5020859;28;20121;-74
2023/12/03 03:14:25;;;;;;;1.80;1.70;;;0.90;99.90;;;;;;5026712;28;20434;-74
2023/12/03 03:16:51;;;;;;;0.65;0.65;;;0.80;99.90;;;;;;5024431;28;20156;-74
2023/12/03 03:19:16;;;;;;;1.02;1.02;;;0.90;99.90;;;;;;5026350;28;20391;-74
2023/12/03 03:21:42;;;;;;;1.05;0.98;;;0.80;99.90;;;;;;5015530;28;20073;-74
2023/12/03 03:24:08;;;;;;;1.70;1.33;;;0.90;99.90;;;;;;5022556;28;20080;-74
2023/12/03 03:26:39;;;;;;;1.13;1.13;;;0.90;99.90;;;;;;5021598;28;20392;-74
2023/12/03 03:29:06;;;;;;;1.15;0.70;;;0.90;99.90;;;;;;5024866;28;20045;-74
2023/12/03 03:31:31;;;;;;;1.00;1.00;;;0.90;99.90;;;;;;5025511;28;20142;-74
2023/12/03 03:33:57;;;;;;;0.90;0.90;;;0.90;99.90;;;;;;5021964;28;20122;-74
2023/12/03 03:36:23;;;;;;;0.52;0.52;;;0.90;99.90;;;;;;5015999;28;20037;-74
2023/12/03 03:38:49;;;;;;;0.85;0.85;;;0.90;99.90;;;;;;5021011;28;20045;-75
2023/12/03 03:41:15;;;;;;;0.65;0.65;;;0.90;99.90;;;;;;5016247;28;20045;-75
2023/12/03 03:43:41;;;;;;;0.50;0.50;;;0.90;99.90;;;;;;5021245;28;20627;-74
2023/12/03 03:46:06;;;;;;;0.70;0.70;;;0.90;99.90;;;;;;5013950;28;20064;-74
2023/12/03 03:48:32;;;;;;;1.05;1.05;;;0.90;99.90;;;;;;5021651;28;20414;-74
2023/12/03 03:50:58;;;;;;;1.45;1.45;;;0.90;99.90;;;;;;5010706;28;20121;-74
2023/12/03 03:53:23;;;;;;;0.95;0.95;;;0.90;99.90;;;;;;5012247;28;20111;-74
2023/12/03 03:55:49;;;;;;;1.15;1.08;;;0.90;99.90;;;;;;5026921;28;20411;-74
2023/12/03 03:58:14;;;;;;;1.92;1.23;;;0.90;99.90;;;;;;5019247;28;20045;-74
2023/12/03 04:00:40;;;;;;;2.90;1.23;;;0.90;99.90;;;;;;5011564;28;20053;-74
2023/12/03 04:03:06;;;;;;;0.90;0.90;;;0.90;99.90;;;;;;5021915;28;20048;-74
2023/12/03 04:05:31;;;;;;;0.60;0.60;;;0.90;99.90;;;;;;5015839;28;20453;-74
2023/12/03 04:07:57;;;;;;;1.15;1.15;;;0.90;99.90;;;;;;5010643;28;20049;-75
2023/12/03 04:10:22;;;;;;;1.75;1.65;;;0.90;99.90;;;;;;5022527;28;20557;-74
2023/12/03 04:12:48;;;;;;;0.95;0.95;;;0.90;99.90;;;;;;5016436;28;20240;-74
2023/12/03 04:15:14;;;;;;;1.30;1.20;;;0.90;99.90;;;;;;5018030;28;20124;-74
2023/12/03 04:17:39;;;;;;;1.25;1.13;;;0.90;99.90;;;;;;5014631;28;20037;-74
2023/12/03 04:20:06;;;;;;;1.55;1.25;;;0.90;99.90;;;;;;5018195;28;20574;-74
2023/12/03 04:22:32;;;;;;;2.83;0.80;;;0.90;99.90;;;;;;5016554;28;20089;-74
2023/12/03 04:24:58;;;;;;;1.05;1.05;;;1.00;99.90;;;;;;5018199;28;20068;-74
2023/12/03 04:27:25;;;;;;;0.68;0.68;;;0.90;99.90;;;;;;5020006;28;20049;-74
2023/12/03 04:29:50;;;;;;;1.02;1.00;;;1.00;99.90;;;;;;5010502;28;20058;-74
2023/12/03 04:32:16;;;;;;;2.40;1.63;;;1.00;99.90;;;;;;5017717;28;20096;-74
2023/12/03 04:34:42;;;;;;;0.77;0.77;;;1.00;99.90;;;;;;5023473;28;20537;-74
2023/12/03 04:37:07;;;;;;;3.15;2.30;;;1.00;99.90;;;;;;5028632;28;20049;-74
2023/12/03 04:39:34;;;;;;;5.20;1.75;;;1.00;99.90;;;;;;5017913;28;20321;-73
2023/12/03 04:42:00;;;;;;;1.20;1.10;;;1.00;99.90;;;;;;4993607;28;20056;-74
2023/12/03 04:44:26;;;;;;;1.45;1.35;;;1.00;99.90;;;;;;5012767;28;20399;-74
2023/12/03 04:46:52;;;;;;;0.70;0.70;;;1.00;99.90;;;;;;5016204;28;20052;-73
2023/12/03 04:49:17;;;;;;;1.63;1.52;;;1.00;99.90;;;;;;5021118;28;20077;-74
2023/12/03 04:51:43;;;;;;;1.85;1.55;;;1.00;99.90;;;;;;5011795;28;20052;-73
2023/12/03 04:54:09;;;;;;;4.72;2.05;;;1.00;99.90;;;;;;5013574;28;20096;-73
2023/12/03 04:56:36;;;;;;;4.72;2.97;;;1.00;99.90;;;;;;5013290;28;20125;-73
2023/12/03 04:59:02;;;;;;;1.95;1.85;;;1.00;99.90;;;;;;5018941;28;20068;-73
2023/12/03 05:01:28;;;;;;;1.05;1.05;;;1.00;99.90;;;;;;5022352;28;20080;-73
2023/12/03 05:03:53;;;;;;;2.10;1.95;;;1.00;99.90;;;;;;5010304;28;20489;-73
2023/12/03 05:06:19;;;;;;;1.95;1.58;;;1.00;99.90;;;;;;5015069;28;20049;-74
2023/12/03 05:08:45;;;;;;;1.42;1.38;;;1.00;99.90;;;;;;5013248;28;20045;-74
2023/12/03 05:11:10;;;;;;;2.33;2.03;;;1.00;99.90;;;;;;5017030;28;20475;-73
2023/12/03 05:13:36;;;;;;;0.65;0.57;;;1.00;99.90;;;;;;5022712;28;20046;-74
2023/12/03 05:16:02;;;;;;;1.17;1.08;;;1.00;99.90;;;;;;5018622;28;20442;-73
2023/12/03 05:18:28;;;;;;;1.08;1.08;;;1.00;99.90;;;;;;5006547;28;20060;-73
2023/12/03 05:20:54;;;;;;;0.85;0.85;;;1.00;99.90;;;;;;5021978;28;20041;-74
2023/12/03 05:23:19;;;;;;;2.78;1.92;;;1.00;99.90;;;;;;5011620;28;20414;-73
2023/12/03 05:25:45;;;;;;;2.40;2.20;;;0.90;99.90;;;;;;5017580;28;20053;-74
2023/12/03 05:28:11;;;;;;;1.58;1.33;;;1.00;99.90;;;;;;5024760;28;20133;-73
2023/12/03 05:30:36;;;;;;;1.75;1.65;;;1.00;99.90;;;;;;5015339;28;20085;-73
2023/12/03 05:33:02;;;;;;;1.17;1.17;;;0.90;99.90;;;;;;5020122;28;20091;-74
2023/12/03 05:35:28;;;;;;;1.27;1.27;;;0.90;99.90;;;;;;5019220;28;20050;-74
2023/12/03 05:37:53;;;;;;;1.55;1.45;;;0.90;99.90;;;;;;5008618;28;20507;-73
2023/12/03 05:40:20;;;;;;;0.73;0.73;;;1.00;99.90;;;;;;5016208;28;20058;-73
2023/12/03 05:42:45;;;;;;;1.10;1.10;;;0.90;99.90;;;;;;5013059;28;20476;-73
2023/12/03 05:45:11;;;;;;;1.45;1.35;;;0.90;99.90;;;;;;5016608;28;20060;-74
2023/12/03 05:47:37;;;;;;;2.60;1.52;;;0.90;99.90;;;;;;5009923;28;20144;-73
2023/12/03 05:50:04;;;;;;;1.92;1.45;;;0.90;99.90;;;;;;5013923;28;20080;-73
2023/12/03 05:52:29;;;;;;;1.80;1.70;;;0.90;99.90;;;;;;5015098;28;20041;-73
2023/12/03 05:54:55;;;;;;;1.17;1.17;;;0.90;99.90;;;;;;5014097;28;20049;-74
2023/12/03 05:57:21;;;;;;;1.05;1.02;;;0.90;99.90;;;;;;5012845;28;20049;-74
2023/12/03 05:59:47;;;;;;;1.70;1.60;;;0.90;99.90;;;;;;5012468;28;20069;-73
2023/12/03 06:02:13;;;;;;;1.45;1.25;;;0.90;99.90;;;;;;5018925;28;20065;-73
2023/12/03 06:04:39;;;;;;;2.08;1.80;;;0.90;99.90;;;;;;5010709;28;20057;-73
2023/12/03 06:07:05;;;;;;;1.00;0.88;;;0.90;99.90;;;;;;5020511;28;20041;-74
2023/12/03 06:09:31;;;;;;;3.20;1.48;;;0.90;99.90;;;;;;5018905;28;20045;-74
2023/12/03 06:11:56;;;;;;;1.77;1.70;;;1.00;99.90;;;;;;5009939;28;20133;-73
2023/12/03 06:14:22;;;;;;;1.75;1.65;;;0.90;99.90;;;;;;5019472;28;20057;-73
2023/12/03 06:16:48;;;;;;;1.42;1.33;;;1.00;99.90;;;;;;5015995;28;20068;-73
2023/12/03 06:19:13;;;;;;;7.40;1.52;;;1.00;99.90;;;;;;5009145;28;20062;-74
2023/12/03 06:21:39;;;;;;;1.35;1.23;;;1.00;99.90;;;;;;5024065;28;20049;-74
2023/12/03 06:24:05;;;;;;;0.60;0.60;;;0.90;99.90;;;;;;5014028;28;20058;-74
2023/12/03 06:26:31;;;;;;;1.90;1.77;;;1.00;99.90;;;;;;5016448;28;20081;-74
2023/12/03 06:28:57;;;;;;;2.30;1.90;;;0.90;99.90;;;;;;5021359;28;20516;-73
2023/12/03 06:31:23;;;;;;;0.98;0.98;;;1.00;99.90;;;;;;5019029;28;20049;-73
2023/12/03 06:33:48;;;;;;;1.45;1.35;;;0.90;99.90;;;;;;5018255;28;20045;-74
2023/12/03 06:36:14;;;;;;;2.75;2.42;;;1.00;99.90;;;;;;5021653;28;20050;-73
2023/12/03 06:38:40;;;;;;;1.25;1.15;;;1.00;99.90;;;;;;5015503;28;20045;-74
2023/12/03 06:41:06;;;;;;;1.02;0.90;;;1.00;99.90;;;;;;5016859;28;20073;-74
2023/12/03 06:43:31;;;;;;;3.40;1.77;;;1.00;99.90;;;;;;5019834;28;20517;-73
2023/12/03 06:46:00;;;;;;;0.85;0.85;;;1.00;99.90;;;;;;5007695;28;20183;-73
2023/12/03 06:48:26;;;;;;;6.72;1.77;;;1.00;99.90;;;;;;5023848;28;20453;-73
2023/12/03 06:50:52;;;;;;;5.78;0.80;;;1.00;99.90;;;;;;5015967;28;20047;-73
2023/12/03 06:53:18;;;;;;;2.20;2.00;;;1.00;99.90;;;;;;5010593;28;20042;-73
2023/12/03 06:55:43;;;;;;;1.63;1.52;;;1.00;99.90;;;;;;5022289;28;20412;-73
2023/12/03 06:58:11;;;;;;;1.42;1.33;;;1.00;99.90;;;;;;5017995;28;20041;-73
2023/12/03 07:00:37;;;;;;;1.13;1.10;;;1.00;99.90;;;;;;5017542;28;20080;-73
2023/12/03 07:03:03;;;;;;;1.77;1.65;;;1.10;99.90;;;;;;5018555;28;20084;-73
2023/12/03 07:05:28;;;;;;;0.75;0.75;;;1.10;99.90;;;;;;5019950;28;20391;-73
2023/12/03 07:07:54;;;;;;;1.00;0.98;;;1.00;99.90;;;;;;5022722;28;20050;-73
2023/12/03 07:10:20;;;;;;;1.55;1.55;;;1.00;99.90;;;;;;5021915;28;20059;-74
2023/12/03 07:12:45;;;;;;;2.00;1.80;;;1.00;99.90;;;;;;5024416;28;20124;-73
2023/12/03 07:15:12;;;;;;;0.65;0.65;;;1.00;99.90;;;;;;5021016;28;20100;-72
2023/12/03 07:17:39;;;;;;;1.65;1.55;;;1.10;99.90;;;;;;5018455;28;20053;-72
2023/12/03 07:20:06;;;;;;;1.53;1.43;;;1.10;99.90;;;;;;5023928;28;20111;-73
2023/12/03 07:22:32;;;;;;;1.58;1.48;;;1.10;99.90;;;;;;5017874;28;20052;-73
2023/12/03 07:24:58;;;;;;;1.00;1.00;;;1.10;99.90;;;;;;5026957;28;20053;-73
2023/12/03 07:27:23;;;;;;;0.95;0.95;;;1.10;99.90;;;;;;5027502;28;20057;-73
2023/12/03 07:29:56;;;;;;;1.25;1.25;;;1.10;99.90;;;;;;5022316;28;20820;-73
2023/12/03 07:32:25;;;;;;;1.60;1.42;;;1.10;99.90;;;;;;5027487;28;20494;-73
2023/12/03 07:34:51;;;;;;;0.82;0.80;;;1.10;99.90;;;;;;5017142;28;20124;-73
2023/12/03 07:37:17;;;;;;;0.82;0.82;;;1.10;99.90;;;;;;5023752;28;20615;-73
2023/12/03 07:39:42;;;;;;;1.55;1.10;;;1.10;99.90;;;;;;5019541;28;20042;-73
2023/12/03 07:42:08;;;;;;;1.27;1.17;;;1.10;99.90;;;;;;5020583;28;20049;-73
2023/12/03 07:44:34;;;;;;;4.18;3.30;;;1.10;99.90;;;;;;5011060;28;20136;-73
2023/12/03 07:47:01;;;;;;;1.27;1.20;;;1.10;99.90;;;;;;5024443;28;20041;-73
2023/12/03 07:49:26;;;;;;;2.53;1.85;;;1.10;99.90;;;;;;5009179;28;20054;-72
2023/12/03 07:51:52;;;;;;;2.05;1.85;;;1.20;99.90;;;;;;5021935;28;20103;-72
2023/12/03 07:54:17;;;;;;;0.95;0.80;;;1.20;99.90;;;;;;5022518;28;21027;-72
2023/12/03 07:56:43;;;;;;;1.15;1.10;;;1.20;99.90;;;;;;5019995;28;20045;-72
2023/12/03 07:59:09;;;;;;;0.88;0.88;;;1.20;99.90;;;;;;5016611;28;20042;-72
2023/12/03 08:01:35;;;;;;;1.48;1.33;;;1.20;99.90;;;;;;5015698;28;20050;-73
2023/12/03 08:04:03;;;;;;;1.35;1.33;;;1.20;99.90;;;;;;5015523;28;20080;-72
2023/12/03 08:06:29;;;;;;;1.48;1.42;;;1.20;99.90;;;;;;5012123;28;20614;-72
2023/12/03 08:08:59;;;;;;;3.25;2.20;;;1.20;99.90;;;;;;5019916;28;20045;-72
2023/12/03 08:11:25;;;;;;;2.42;2.22;;;1.20;99.90;;;;;;5021634;28;20045;-72
2023/12/03 08:13:54;;;;;;;6.63;1.75;;;1.20;99.90;;;;;;5018689;28;20099;-72
2023/12/03 08:16:19;;;;;;;1.45;1.35;;;1.20;99.90;;;;;;5018821;28;20096;-72
2023/12/03 08:18:45;;;;;;;3.00;2.35;;;1.20;99.90;;;;;;5016489;28;20072;-73
2023/12/03 08:21:11;;;;;;;1.58;1.40;;;1.20;99.90;;;;;;5013903;28;20598;-72
2023/12/03 08:23:36;;;;;;;0.50;0.50;;;1.20;99.90;;;;;;5017143;28;20044;-72
2023/12/03 08:26:04;;;;;;;1.13;1.10;;;1.20;99.90;;;;;;5025081;28;20045;-72
2023/12/03 08:28:30;;;;;;;0.75;0.70;;;1.30;99.90;;;;;;5015365;28;20077;-72
2023/12/03 08:30:55;;;;;;;1.88;1.40;;;1.20;99.90;;;;;;5021127;28;20033;-72
2023/12/03 08:33:21;;;;;;;2.80;1.80;;;1.30;99.90;;;;;;5010891;28;20477;-72
2023/12/03 08:35:47;;;;;;;2.28;2.08;;;1.30;99.90;;;;;;5018756;28;20099;-72
2023/12/03 08:38:12;;;;;;;1.85;1.33;;;1.30;99.90;;;;;;5024250;28;20049;-72
2023/12/03 08:40:39;;;;;;;2.22;2.10;;;1.30;99.90;;;;;;5021178;28;20506;-72
2023/12/03 08:43:05;;;;;;;8.35;2.47;;;1.30;99.90;;;;;;5006806;28;20136;-72
2023/12/03 08:45:33;;;;;;;3.88;1.85;;;1.30;99.90;;;;;;5013721;28;20038;-72
2023/12/03 08:48:00;;;;;;;0.80;0.80;;;1.30;99.90;;;;;;5021599;28;20037;-72
2023/12/03 08:50:28;;;;;;;3.45;2.35;;;1.30;99.90;;;;;;5023592;28;20043;-72
2023/12/03 08:52:55;;;;;;;2.08;1.73;;;1.30;99.90;;;;;;5017727;28;20057;-72
2023/12/03 08:55:21;;;;;;;1.38;1.20;;;1.30;99.90;;;;;;5022224;28;20660;-72
2023/12/03 08:57:47;;;;;;;1.77;1.67;;;1.40;99.90;;;;;;5014547;28;20111;-72
2023/12/03 09:00:15;;;;;;;1.05;1.02;;;1.40;99.90;;;;;;5017451;28;20052;-72
2023/12/03 09:02:43;;;;;;;1.27;1.10;;;1.40;99.90;;;;;;5009553;28;20775;-72
2023/12/03 09:05:09;;;;;;;1.92;1.83;;;1.40;99.90;;;;;;5014493;28;20053;-72
2023/12/03 09:07:35;;;;;;;2.80;1.65;;;1.40;99.90;;;;;;5011591;28;20562;-72
2023/12/03 09:10:01;;;;;;;2.25;1.92;;;1.40;99.90;;;;;;5019234;28;20038;-72
2023/12/03 09:12:26;;;;;;;0.70;0.70;;;1.40;99.90;;;;;;5017132;28;20052;-72
2023/12/03 09:14:52;;;;;;;3.30;2.00;;;1.40;99.90;;;;;;5017603;28;20495;-72
2023/12/03 09:17:18;;;;;;;1.02;1.02;;;1.50;99.90;;;;;;5015710;28;20049;-72
2023/12/03 09:19:43;;;;;;;0.60;0.60;;;1.50;99.90;;;;;;5012600;28;20287;-72
2023/12/03 09:22:09;;;;;;;0.98;0.93;;;1.50;99.90;;;;;;5000832;28;20087;-72
2023/12/03 09:24:34;;;;;;;1.75;1.13;;;1.50;99.90;;;;;;5015917;28;20064;-72
2023/12/03 09:27:00;;;;;;;0.90;0.90;;;1.50;99.90;;;;;;5014441;28;20042;-72
2023/12/03 09:29:26;;;;;;;0.88;0.88;;;1.50;99.90;;;;;;5013222;28;20073;-72
2023/12/03 09:31:51;;;;;;;1.17;1.13;;;1.60;99.90;;;;;;5009515;28;20514;-72
2023/12/03 09:34:17;;;;;;;1.00;0.85;;;1.60;99.90;;;;;;5015110;28;20042;-72
2023/12/03 09:36:43;;;;;;;7.00;2.50;;;1.60;99.90;;;;;;5018450;28;20052;-73
2023/12/03 09:39:08;;;;;;;1.98;1.60;;;1.60;99.90;;;;;;5019926;28;20554;-72
2023/12/03 09:41:41;;;;;;;1.45;1.35;;;1.60;99.90;;;;;;5017040;28;20049;-72
2023/12/03 09:44:21;;;;;;;4.05;2.15;;;1.60;99.90;;;;;;5022242;28;20081;-72
2023/12/03 09:46:49;;;;;;;0.65;0.65;;;1.70;99.90;;;;;;5023099;28;20054;-73
2023/12/03 09:49:18;;;;;;;1.05;1.05;;;1.70;99.90;;;;;;5033571;28;20052;-73
2023/12/03 09:51:43;;;;;;;1.40;1.30;;;1.70;99.90;;;;;;5013497;28;20090;-73
2023/12/03 09:54:09;;;;;;;2.78;1.38;;;1.70;99.90;;;;;;5011044;28;20045;-73
2023/12/03 09:56:38;;;;;;;2.70;1.48;;;1.70;99.90;;;;;;5012638;28;20042;-72
2023/12/03 09:59:06;;;;;;;1.65;1.55;;;1.80;99.90;;;;;;5008585;28;20050;-73
2023/12/03 10:01:36;;;;;;;1.10;1.05;;;1.80;99.90;;;;;;5012375;28;20330;-72
2023/12/03 10:04:02;;;;;;;6.53;1.45;;;1.70;99.90;;;;;;5011378;28;20057;-72
2023/12/03 10:06:28;;;;;;;0.95;0.88;;;1.80;99.90;;;;;;5016324;28;20054;-73
2023/12/03 10:08:54;;;;;;;1.80;1.27;;;1.80;99.90;;;;;;5014839;28;20140;-73
2023/12/03 10:11:25;;;;;;;2.17;1.85;;;1.80;99.90;;;;;;5015310;28;20060;-73
2023/12/03 10:13:56;;;;;;;2.92;2.53;;;1.80;99.90;;;;;;5014993;28;20049;-73
2023/12/03 10:16:22;;;;;;;2.13;1.67;;;1.80;99.90;;;;;;5016458;28;20442;-72
2023/12/03 10:18:49;;;;;;;2.42;2.00;;;1.90;99.90;;;;;;5022894;28;20042;-72
2023/12/03 10:21:15;;;;;;;3.40;1.85;;;1.90;99.90;;;;;;5006954;28;20052;-73
2023/12/03 10:23:41;;;;;;;2.10;1.98;;;2.00;99.90;;;;;;5018211;28;20049;-73
2023/12/03 10:26:13;;;;;;;2.30;2.05;;;2.00;99.90;;;;;;5026512;28;20144;-73
2023/12/03 10:28:40;;;;;;;8.15;2.10;;;2.00;99.90;;;;;;5018415;28;20048;-73
2023/12/03 10:31:14;;;;;;;6.00;3.25;;;2.10;99.90;;;;;;5023077;28;20041;-73
2023/12/03 10:33:42;;;;;;;2.50;2.30;;;2.10;99.90;;;;;;5018370;28;20053;-73
2023/12/03 10:36:09;;;;;;;;;;;2.10;99.90;;;;;;5019488;28;20050;-73
2023/12/03 10:38:36;;;;;;;3.67;3.33;;;2.10;99.90;;;;;;5023997;28;19929;-73
2023/12/03 10:41:05;;;;;;;15.55;5.25;;;2.20;99.90;;;;;;5025875;28;20050;-73
2023/12/03 10:43:34;;;;;;;7.63;4.55;;;2.30;99.90;;;;;;5014708;28;20441;-73
2023/12/03 10:46:03;;;;;;;3.72;3.25;;;2.30;99.90;;;;;;5027975;28;20124;-73
2023/12/03 10:48:30;;;;;;;3.47;2.35;;;2.40;99.90;;;;;;5025256;28;20096;-73
2023/12/03 10:51:02;;;;;;;5.50;3.80;;;2.50;99.90;;;;;;5021609;28;20049;-74
2023/12/03 10:53:31;;;;;;;8.40;2.88;;;2.60;99.90;;;;;;5021658;28;20045;-73
2023/12/03 10:55:57;;;;;;;3.80;3.50;;;2.60;99.90;;;;;;5020920;28;20569;-73
2023/12/03 10:58:25;;;;;;;4.47;3.85;;;2.70;99.90;;;;;;5017082;28;20045;-74
2023/12/03 11:01:00;;;;;;;5.50;3.15;;;2.80;99.90;;;;;;5020921;28;20121;-74
2023/12/03 11:03:57;;;;;;;2.75;2.53;;;2.80;99.90;;;;;;5021496;28;20149;-74
2023/12/03 11:06:24;;;;;;;3.35;2.95;;;2.90;99.90;;;;;;5015865;28;20826;-74
2023/12/03 11:08:51;;;;;;;4.43;3.10;;;2.90;99.90;;;;;;5023647;28;20090;-74
2023/12/03 11:11:22;;;;;;;2.90;2.70;;;2.90;99.90;;;;;;5025646;28;20441;-73
2023/12/03 11:13:57;;;;;;;1.40;1.30;;;3.00;99.90;;;;;;5015193;28;20045;-73
2023/12/03 11:16:31;;;;;;;6.53;2.95;;;3.10;99.90;;;;;;5017195;28;20041;-74
2023/12/03 11:19:10;;;;;;;2.10;2.00;;;3.10;99.90;;;;;;5017279;28;20563;-74
2023/12/03 11:21:58;;;;;;;8.43;2.20;;;3.20;99.90;;;;;;5024488;28;20136;-74
2023/12/03 11:24:36;;;;;;;3.17;2.85;;;3.20;99.90;;;;;;5014955;28;20075;-76
2023/12/03 11:27:03;;;;;;;2.30;2.10;;;3.30;99.90;;;;;;5016497;28;20046;-74
2023/12/03 11:30:04;;;;;;;4.55;3.83;;;3.30;99.90;;;;;;5018800;28;20045;-73
2023/12/03 11:32:29;;;;;;;4.03;3.70;;;3.20;99.90;;;;;;4994833;28;20212;-74
2023/12/03 11:35:16;;;;;;;10.38;5.97;;;3.30;99.90;;;;;;5013412;28;20125;-74
2023/12/03 11:37:45;;;;;;;7.43;5.00;;;3.30;99.90;;;;;;5008852;28;20403;-74
2023/12/03 11:40:12;;;;;;;6.43;3.85;;;3.20;99.90;;;;;;5018518;28;20061;-73
2023/12/03 11:42:50;;;;;;;4.50;3.45;;;3.20;99.90;;;;;;5006992;28;20045;-74
2023/12/03 11:45:21;;;;;;;11.43;6.40;;;3.10;99.90;;;;;;5013551;28;20056;-74
2023/12/03 11:48:16;;;;;;;11.00;7.25;;;3.00;99.90;;;;;;5012319;28;20054;-73
2023/12/03 11:50:44;;;;;;;23.05;5.30;;;3.00;99.90;;;;;;5012671;28;20202;-73
2023/12/03 11:53:13;;;;;;;11.25;4.05;;;2.90;99.90;;;;;;5015335;28;20053;-73
2023/12/03 11:55:41;;;;;;;6.30;4.50;;;2.90;99.90;;;;;;5014991;28;20057;-74
2023/12/03 11:58:07;;;;;;;6.57;4.22;;;2.80;99.90;;;;;;5014244;28;20104;-73
2023/12/03 12:00:34;;;;;;;8.77;3.95;;;2.80;99.90;;;;;;5015697;28;20041;-73
2023/12/03 12:03:00;;;;;;;5.07;4.28;;;2.70;99.90;;;;;;5016517;28;20045;-73
2023/12/03 12:05:26;;;;;;;16.75;6.55;;;2.60;99.90;;;;;;5019585;28;20045;-75
2023/12/03 12:07:57;;;;;;;2.83;2.63;;;2.60;99.90;;;;;;4996299;28;20046;-73
2023/12/03 12:10:22;;;;;;;5.45;4.18;;;2.50;99.90;;;;;;5015950;28;20137;-73
2023/12/03 12:12:48;;;;;;;7.00;4.60;;;2.40;99.90;;;;;;5016412;28;20137;-73
2023/12/03 12:15:14;;;;;;;9.13;5.03;;;2.40;99.90;;;;;;5025863;28;20052;-73
2023/12/03 12:17:41;;;;;;;3.95;3.65;;;2.30;99.90;;;;;;5013950;28;20099;-73
2023/12/03 12:20:07;;;;;;;14.48;3.83;;;2.20;99.90;;;;;;5017060;28;20367;-73
2023/12/03 12:22:33;;;;;;;6.03;3.00;;;2.20;99.90;;;;;;5026849;28;20054;-73
2023/12/03 12:24:59;;;;;;;4.18;3.88;;;2.10;99.90;;;;;;5019430;28;20054;-73
2023/12/03 12:27:26;;;;;;;4.43;3.58;;;2.00;99.90;;;;;;5019153;28;20177;-74
2023/12/03 12:29:51;;;;;;;6.95;3.13;;;2.10;99.90;;;;;;5015865;28;20044;-74
2023/12/03 12:32:17;;;;;;;5.28;4.55;;;2.10;99.90;;;;;;5016317;28;20049;-73
2023/12/03 12:34:44;;;;;;;6.72;4.32;;;2.00;99.90;;;;;;5021294;28;20061;-74
2023/12/03 12:37:10;;;;;;;8.63;4.85;;;2.00;99.90;;;;;;5017096;28;20140;-74
2023/12/03 12:39:36;;;;;;;13.05;4.07;;;2.00;99.90;;;;;;5022276;28;20049;-74
2023/12/03 12:42:02;;;;;;;5.47;3.42;;;2.10;99.90;;;;;;5018521;28;20353;-73
2023/12/03 12:44:44;;;;;;;7.95;4.43;;;2.10;99.90;;;;;;5017740;28;20042;-73
2023/12/03 12:47:11;;;;;;;4.22;3.85;;;2.10;99.90;;;;;;5015914;28;20060;-73
2023/12/03 12:49:40;;;;;;;4.75;3.90;;;2.20;99.90;;;;;;5013266;28;20046;-73
2023/12/03 12:52:14;;;;;;;17.83;5.68;;;2.20;99.90;;;;;;5015314;28;20052;-73
2023/12/03 12:54:47;;;;;;;10.25;4.60;;;2.20;99.90;;;;;;5019632;28;20461;-73
2023/12/03 12:57:14;;;;;;;6.43;2.45;;;2.20;99.90;;;;;;5023231;28;20049;-73